Time;durP1;ratioP1;P1;durP2;ratioP2;P2;SDS_P1;SDS_P2;PMS_P1;PMS_P2;Temp;Humidity;BMP_temperature;BMP_pressure;BME280_temperature;BME280_humidity;BME280_pressure;Samples;Min_cycle;Max_cycle;Signal;HPM_P1;HPM_P2
2021/04/18 00:02:34;;;;;;;47.98;25.05;;;;;;;5.97;79.29;100391.48;1670595;86;21236;-82
2021/04/18 00:05:39;;;;;;;55.58;27.20;;;;;;;5.98;79.34;100391.86;1680199;85;21184;-81
2021/04/18 00:08:44;;;;;;;43.75;25.45;;;;;;;5.98;79.27;100386.44;1679608;85;21220;-81
2021/04/18 00:11:50;;;;;;;42.67;23.90;;;;;;;5.98;79.26;100391.86;1680097;85;21849;-81
2021/04/18 00:14:55;;;;;;;47.95;24.12;;;;;;;5.99;79.24;100388.14;1679875;85;21191;-81
2021/04/18 00:18:02;;;;;;;46.50;24.57;;;;;;;5.98;79.13;100385.08;1680108;85;21326;-81
2021/04/18 00:21:07;;;;;;;39.20;21.73;;;;;;;5.95;78.89;100382.64;1680078;85;21318;-81
2021/04/18 00:24:13;;;;;;;40.98;24.60;;;;;;;5.92;78.68;100382.91;1633255;86;21850;-81
2021/04/18 00:27:19;;;;;;;49.40;26.55;;;;;;;5.84;78.33;100388.55;1685232;85;21603;-81
2021/04/18 00:30:27;;;;;;;42.80;25.90;;;;;;;5.75;78.60;100396.20;1685167;85;21835;-81
2021/04/18 00:33:33;;;;;;;47.58;26.02;;;;;;;5.70;79.03;100391.70;1670606;86;21200;-81
2021/04/18 00:36:39;;;;;;;43.80;23.80;;;;;;;5.63;79.24;100392.75;1670616;86;21319;-81
2021/04/18 00:39:46;;;;;;;52.90;25.20;;;;;;;5.58;79.24;100392.83;1678549;83;21235;-81
2021/04/18 00:42:52;;;;;;;40.80;24.25;;;;;;;5.54;79.48;100390.04;1680029;85;21306;-81
2021/04/18 00:45:57;;;;;;;46.77;26.00;;;;;;;5.51;79.53;100388.98;1680072;85;21291;-81
2021/04/18 00:49:03;;;;;;;49.50;25.55;;;;;;;5.46;79.62;100399.37;1680182;85;21845;-81
2021/04/18 00:52:09;;;;;;;54.38;25.82;;;;;;;5.39;79.61;100401.31;1680085;85;21349;-81
2021/04/18 00:55:16;;;;;;;44.95;26.05;;;;;;;5.30;79.60;100404.86;1680071;85;21907;-81
2021/04/18 00:58:22;;;;;;;48.50;26.77;;;;;;;5.24;80.45;100405.42;1680044;85;21341;-81
2021/04/18 01:01:28;;;;;;;50.58;26.80;;;;;;;5.24;80.89;100401.36;1680177;85;21809;-81
2021/04/18 01:04:34;;;;;;;38.85;23.15;;;;;;;5.19;81.04;100395.50;1683482;85;21212;-81
2021/04/18 01:07:41;;;;;;;43.30;24.12;;;;;;;5.19;81.39;100398.72;1680043;85;21322;-81
2021/04/18 01:10:48;;;;;;;46.40;25.70;;;;;;;5.13;81.46;100402.34;1680082;85;21808;-81
2021/04/18 01:13:53;;;;;;;43.95;24.98;;;;;;;5.11;81.63;100402.97;1685232;85;21352;-81
2021/04/18 01:16:59;;;;;;;38.55;24.15;;;;;;;5.10;81.68;100396.34;1683778;85;21208;-81
2021/04/18 01:20:04;;;;;;;43.95;24.85;;;;;;;5.09;81.77;100398.70;1685260;85;21313;-81
2021/04/18 01:23:11;;;;;;;44.80;25.10;;;;;;;5.08;82.09;100391.06;1685258;85;21888;-81
2021/04/18 01:26:21;;;;;;;46.37;24.27;;;;;;;5.09;82.41;100390.06;1697696;83;21290;-81
2021/04/18 01:29:27;;;;;;;38.92;23.18;;;;;;;5.10;82.34;100393.63;1685131;85;21741;-81
2021/04/18 01:32:34;;;;;;;46.80;25.82;;;;;;;5.07;82.32;100385.25;1683780;83;21216;-81
2021/04/18 01:35:39;;;;;;;55.55;25.32;;;;;;;5.06;82.46;100385.41;1685272;85;21172;-81
2021/04/18 01:38:45;;;;;;;37.38;23.47;;;;;;;5.07;82.67;100378.98;1681536;85;21342;-81
2021/04/18 01:41:51;;;;;;;47.83;23.98;;;;;;;5.03;82.59;100375.69;1685110;85;21200;-81
2021/04/18 01:44:56;;;;;;;38.08;22.52;;;;;;;4.99;82.52;100376.13;1685134;85;21362;-81
2021/04/18 01:48:02;;;;;;;40.00;21.23;;;;;;;4.95;82.72;100377.40;1684557;85;21314;-80
2021/04/18 01:51:10;;;;;;;34.50;21.35;;;;;;;4.93;82.88;100379.37;1684326;85;21370;-81
2021/04/18 01:54:16;;;;;;;38.90;21.07;;;;;;;4.88;82.91;100385.20;1683849;85;21211;-81
2021/04/18 01:57:21;;;;;;;48.02;20.95;;;;;;;4.85;83.22;100383.65;1684904;85;21559;-81
2021/04/18 02:00:29;;;;;;;32.80;20.05;;;;;;;4.82;83.37;100376.28;1683512;83;21204;-81
2021/04/18 02:03:36;;;;;;;39.48;21.75;;;;;;;4.81;83.66;100375.93;1683785;85;21326;-81
2021/04/18 02:06:43;;;;;;;35.00;20.12;;;;;;;4.79;83.55;100380.61;1664879;85;21287;-81
2021/04/18 02:09:51;;;;;;;37.70;20.97;;;;;;;4.72;83.39;100376.25;1681967;84;21821;-81
2021/04/18 02:12:56;;;;;;;38.60;22.05;;;;;;;4.65;83.55;100377.78;1668998;85;21322;-81
2021/04/18 02:16:05;;;;;;;31.52;20.10;;;;;;;4.60;83.90;100382.25;1684196;84;21171;-81
2021/04/18 02:19:13;;;;;;;36.10;18.98;;;;;;;4.59;84.30;100378.33;1688185;85;21184;-81
2021/04/18 02:22:20;;;;;;;31.65;19.65;;;;;;;4.57;84.24;100383.05;1687966;85;21306;-81
2021/04/18 02:25:26;;;;;;;36.68;19.05;;;;;;;4.51;83.92;100380.86;1688250;85;21208;-81
2021/04/18 02:28:33;;;;;;;30.68;20.17;;;;;;;4.48;83.82;100381.14;1685866;84;21330;-82
2021/04/18 02:31:40;;;;;;;36.20;19.80;;;;;;;4.48;83.98;100377.09;1688295;85;21318;-81
2021/04/18 02:34:46;;;;;;;37.05;19.17;;;;;;;4.48;84.31;100373.88;1688076;85;21180;-81
2021/04/18 02:37:54;;;;;;;36.58;20.68;;;;;;;4.48;84.33;100371.67;1688293;85;21841;-81
2021/04/18 02:40:58;;;;;;;31.30;19.85;;;;;;;4.46;84.33;100373.64;1688276;85;21204;-81
2021/04/18 02:44:04;;;;;;;33.73;19.48;;;;;;;4.47;84.64;100372.64;1687832;85;21311;-81
2021/04/18 02:47:12;;;;;;;37.23;18.60;;;;;;;4.50;84.70;100364.25;1688122;85;21184;-81
2021/04/18 02:50:18;;;;;;;32.50;20.20;;;;;;;4.45;84.18;100367.36;1688290;85;21741;-81
2021/04/18 02:53:24;;;;;;;29.12;18.05;;;;;;;4.45;84.35;100363.80;1688152;85;21183;-81
2021/04/18 02:56:34;;;;;;;29.52;18.30;;;;;;;4.48;84.56;100368.95;1687980;85;21844;-81
2021/04/18 02:59:41;;;;;;;29.75;18.98;;;;;;;4.50;84.32;100364.25;1664187;85;21318;-81
2021/04/18 03:02:48;;;;;;;33.08;17.98;;;;;;;4.49;84.02;100372.87;1667819;85;21760;-81
2021/04/18 03:05:55;;;;;;;30.05;17.75;;;;;;;4.45;83.67;100374.63;1688278;85;21176;-81
2021/04/18 03:08:59;;;;;;;27.90;17.35;;;;;;;4.43;83.68;100373.92;1688150;85;21314;-81
2021/04/18 03:12:07;;;;;;;37.78;19.07;;;;;;;4.41;83.76;100370.48;1687157;85;21478;-82
2021/04/18 03:15:16;;;;;;;32.50;18.80;;;;;;;4.42;84.29;100369.48;1688271;85;21791;-81
2021/04/18 03:18:22;;;;;;;30.23;18.57;;;;;;;4.44;84.71;100369.72;1685659;85;21322;-82
2021/04/18 03:21:28;;;;;;;38.25;22.60;;;;;;;4.51;85.52;100376.80;1685841;85;21334;-82
2021/04/18 03:24:33;;;;;;;39.80;21.65;;;;;;;4.57;85.93;100376.27;1688293;85;21818;-81
2021/04/18 03:27:37;;;;;;;28.92;18.82;;;;;;;4.65;86.22;100376.42;1669000;85;21219;-82
2021/04/18 03:30:45;;;;;;;29.00;17.40;;;;;;;4.75;86.57;100382.77;1688168;85;21219;-81
2021/04/18 03:33:53;;;;;;;32.05;19.30;;;;;;;4.84;86.84;100380.55;1687818;85;21310;-81
2021/04/18 03:36:59;;;;;;;30.37;18.87;;;;;;;4.91;87.23;100375.95;1688185;85;21576;-81
2021/04/18 03:40:06;;;;;;;37.25;22.65;;;;;;;4.96;87.45;100381.82;1688098;85;21275;-81
2021/04/18 03:43:12;;;;;;;37.05;22.77;;;;;;;5.00;87.53;100380.05;1686813;84;21189;-81
2021/04/18 03:46:18;;;;;;;45.78;25.70;;;;;;;5.04;87.24;100383.34;1688184;85;21770;-81
2021/04/18 03:49:25;;;;;;;34.05;19.95;;;;;;;5.12;86.87;100386.19;1688123;85;21212;-82
2021/04/18 03:52:33;;;;;;;35.40;19.48;;;;;;;5.22;86.57;100393.88;1687938;85;21233;-82
2021/04/18 03:55:38;;;;;;;29.20;16.30;;;;;;;5.31;86.42;100386.23;1688282;85;21292;-81
2021/04/18 03:58:46;;;;;;;27.52;16.32;;;;;;;5.40;86.22;100388.59;1688309;85;21331;-82
2021/04/18 04:01:52;;;;;;;34.13;17.30;;;;;;;5.43;86.07;100386.12;1688167;85;21199;-81
2021/04/18 04:04:58;;;;;;;25.65;16.20;;;;;;;5.48;86.13;100386.55;1688227;85;21286;-82
2021/04/18 04:08:06;;;;;;;24.27;14.70;;;;;;;5.56;86.08;100388.91;1688192;85;21349;-81
2021/04/18 04:11:14;;;;;;;27.02;17.07;;;;;;;5.62;85.97;100382.91;1686913;83;21183;-82
2021/04/18 04:14:22;;;;;;;21.50;13.75;;;;;;;5.71;85.83;100391.20;1685548;85;21359;-81
2021/04/18 04:17:27;;;;;;;22.80;14.15;;;;;;;5.80;85.62;100391.70;1662266;85;21302;-82
2021/04/18 04:20:50;;;;;;;22.67;14.55;;;;;;;5.85;85.56;100387.55;1685240;85;21292;-82
2021/04/18 04:24:10;;;;;;;27.37;14.73;;;;;;;5.95;85.73;100385.36;1698025;84;21326;-82
2021/04/18 04:27:18;;;;;;;25.15;12.65;;;;;;;6.09;85.82;100390.33;1685155;85;21870;-82
2021/04/18 04:30:26;;;;;;;21.35;9.90;;;;;;;6.26;85.93;100386.88;1685352;85;21161;-82
2021/04/18 04:33:32;;;;;;;19.12;11.43;;;;;;;6.45;86.14;100384.61;1684171;85;21303;-81
2021/04/18 04:36:39;;;;;;;18.73;12.55;;;;;;;6.70;86.08;100385.80;1685227;85;21835;-81
2021/04/18 04:39:45;;;;;;;21.50;12.70;;;;;;;6.91;85.57;100389.11;1664474;85;21295;-81
2021/04/18 04:42:51;;;;;;;16.23;11.78;;;;;;;7.10;84.87;100378.63;1685172;85;21323;-81
2021/04/18 04:45:57;;;;;;;23.00;14.55;;;;;;;7.24;84.33;100373.17;1685247;85;21284;-81
2021/04/18 04:49:03;;;;;;;24.65;15.13;;;;;;;7.39;83.97;100378.97;1685044;85;21188;-82
2021/04/18 04:52:10;;;;;;;37.17;17.45;;;;;;;7.56;83.91;100374.53;1685103;85;21307;-82
2021/04/18 04:55:16;;;;;;;30.82;18.30;;;;;;;7.64;83.43;100372.75;1681474;84;21821;-82
2021/04/18 04:58:22;;;;;;;35.65;18.82;;;;;;;7.72;83.03;100371.98;1685102;85;21212;-82
2021/04/18 05:01:27;;;;;;;27.52;15.80;;;;;;;7.80;82.71;100375.26;1685296;85;21292;-82
2021/04/18 05:04:32;;;;;;;20.15;13.58;;;;;;;7.92;82.42;100370.78;1684104;85;21189;-81
2021/04/18 05:07:38;;;;;;;33.73;15.45;;;;;;;8.04;82.04;100365.07;1685342;85;21843;-82
2021/04/18 05:10:45;;;;;;;36.77;17.12;;;;;;;8.15;81.58;100371.13;1664869;85;21180;-82
2021/04/18 05:13:50;;;;;;;29.18;17.10;;;;;;;8.24;81.03;100363.88;1682715;84;21323;-82
2021/04/18 05:16:56;;;;;;;29.67;15.65;;;;;;;8.34;80.60;100361.89;1679792;85;21279;-82
2021/04/18 05:20:01;;;;;;;27.50;13.90;;;;;;;8.44;80.25;100355.85;1679779;85;21841;-82
2021/04/18 05:23:07;;;;;;;27.67;13.60;;;;;;;8.61;79.89;100354.56;1679824;85;21224;-82
2021/04/18 05:26:13;;;;;;;22.30;13.45;;;;;;;8.76;79.16;100354.83;1680127;85;21287;-82
2021/04/18 05:29:19;;;;;;;26.60;13.72;;;;;;;8.86;78.25;100348.73;1680001;85;21275;-82
2021/04/18 05:32:26;;;;;;;19.65;12.20;;;;;;;8.98;78.35;100348.77;1683255;85;21200;-82
2021/04/18 05:35:34;;;;;;;22.65;13.43;;;;;;;9.15;78.03;100351.05;1679931;85;21726;-82
2021/04/18 05:38:41;;;;;;;23.75;14.93;;;;;;;9.31;77.80;100356.53;1680024;85;21307;-82
2021/04/18 05:41:47;;;;;;;23.42;14.93;;;;;;;9.47;77.21;100359.31;1679964;85;21710;-82
2021/04/18 05:44:53;;;;;;;25.92;14.83;;;;;;;9.59;76.65;100357.09;1665595;85;21268;-82
2021/04/18 05:47:58;;;;;;;26.82;13.93;;;;;;;9.75;76.66;100359.01;1680025;85;21318;-81
2021/04/18 05:51:05;;;;;;;21.12;13.60;;;;;;;9.98;75.92;100362.77;1680193;85;21302;-82
2021/04/18 05:54:09;;;;;;;24.32;15.20;;;;;;;10.13;74.40;100357.98;1679984;85;21327;-82
2021/04/18 05:57:15;;;;;;;35.23;15.93;;;;;;;10.19;73.54;100355.39;1680055;85;21239;-82
2021/04/18 06:00:21;;;;;;;29.55;14.45;;;;;;;10.31;73.69;100358.67;1679419;85;21287;-82
2021/04/18 06:03:28;;;;;;;23.30;14.47;;;;;;;10.43;73.59;100357.27;1679975;85;21327;-82
2021/04/18 06:06:34;;;;;;;21.45;12.10;;;;;;;10.51;73.21;100354.19;1680135;85;21220;-82
2021/04/18 06:09:39;;;;;;;16.55;10.15;;;;;;;10.60;70.91;100358.61;1679985;85;21330;-82
2021/04/18 06:12:44;;;;;;;18.85;10.25;;;;;;;10.70;70.55;100359.25;1679897;85;21298;-82
2021/04/18 06:15:49;;;;;;;15.65;10.08;;;;;;;10.92;70.01;100365.86;1678591;83;21176;-82
2021/04/18 06:18:55;;;;;;;20.80;12.88;;;;;;;11.13;69.43;100366.61;1680028;85;21342;-82
2021/04/18 06:22:03;;;;;;;21.77;14.47;;;;;;;11.24;69.47;100363.45;1679952;85;21225;-82
2021/04/18 06:25:11;;;;;;;23.50;12.85;;;;;;;11.36;69.51;100358.44;1680106;85;21338;-82
2021/04/18 06:28:17;;;;;;;30.50;13.43;;;;;;;11.43;69.53;100358.92;1670604;86;21319;-82
2021/04/18 06:31:22;;;;;;;19.30;11.57;;;;;;;11.48;68.97;100363.86;1679915;85;21291;-82
2021/04/18 06:34:28;;;;;;;23.65;10.88;;;;;;;11.56;67.54;100362.93;1670562;86;21303;-82
2021/04/18 06:37:33;;;;;;;19.23;11.50;;;;;;;11.65;66.51;100364.58;1670504;86;21347;-82
2021/04/18 06:40:38;;;;;;;18.37;11.57;;;;;;;11.67;65.93;100351.58;1680119;85;21161;-82
2021/04/18 06:43:43;;;;;;;14.95;9.90;;;;;;;11.74;66.42;100352.53;1679495;85;21212;-82
2021/04/18 06:46:50;;;;;;;15.00;9.13;;;;;;;11.83;65.65;100354.20;1665597;85;21822;-82
2021/04/18 06:49:57;;;;;;;21.95;9.28;;;;;;;11.89;64.43;100355.35;1679983;85;21382;-82
2021/04/18 06:53:02;;;;;;;15.78;8.78;;;;;;;11.90;63.98;100360.67;1680162;85;21774;-81
2021/04/18 06:56:14;;;;;;;19.80;9.10;;;;;;;11.91;63.44;100361.00;1679855;85;21364;-82
2021/04/18 06:59:21;;;;;;;12.55;8.43;;;;;;;11.97;62.93;100371.22;1683187;85;21779;-82
2021/04/18 07:02:40;;;;;;;12.88;7.45;;;;;;;12.06;62.77;100367.90;1679838;85;21317;-82
2021/04/18 07:05:58;;;;;;;14.60;8.60;;;;;;;12.17;62.07;100373.45;1669867;86;21306;-82
2021/04/18 07:09:09;;;;;;;17.15;9.78;;;;;;;12.26;62.27;100362.73;1679849;85;21331;-82
2021/04/18 07:12:16;;;;;;;17.73;10.80;;;;;;;12.31;62.57;100364.41;1670593;86;21326;-82
2021/04/18 07:15:42;;;;;;;15.20;10.10;;;;;;;12.37;62.07;100363.64;1681241;85;21310;-82
2021/04/18 07:18:48;;;;;;;28.57;12.23;;;;;;;12.49;61.48;100369.55;1687531;85;21876;-82
2021/04/18 07:21:57;;;;;;;23.65;12.65;;;;;;;12.67;60.95;100369.19;1687878;85;21199;-82
2021/04/18 07:25:03;;;;;;;28.77;15.03;;;;;;;12.88;59.78;100372.02;1688084;85;21334;-82
2021/04/18 07:28:09;;;;;;;40.05;18.15;;;;;;;13.03;60.73;100370.13;1687671;85;21322;-82
2021/04/18 07:31:15;;;;;;;48.75;18.48;;;;;;;13.23;58.80;100361.33;1688148;85;21541;-83
2021/04/18 07:34:22;;;;;;;23.83;12.75;;;;;;;13.42;59.48;100359.34;1688240;85;21236;-82
2021/04/18 07:37:34;;;;;;;18.45;11.48;;;;;;;13.65;58.32;100361.92;1687899;85;21175;-82
2021/04/18 07:40:40;;;;;;;22.40;12.05;;;;;;;13.85;56.91;100355.77;1670015;85;21168;-83
2021/04/18 07:43:48;;;;;;;26.15;11.12;;;;;;;13.96;57.27;100362.95;1688030;85;21314;-83
2021/04/18 07:46:59;;;;;;;20.60;10.13;;;;;;;14.08;55.97;100354.20;1688217;85;21215;-82
2021/04/18 07:50:05;;;;;;;21.37;9.93;;;;;;;14.27;56.30;100352.13;1687989;85;21286;-82
2021/04/18 07:53:11;;;;;;;23.45;12.25;;;;;;;14.43;55.04;100353.72;1687889;85;21207;-83
2021/04/18 07:56:18;;;;;;;32.48;16.02;;;;;;;14.51;55.43;100344.83;1687829;85;21172;-82
2021/04/18 07:59:26;;;;;;;35.73;18.00;;;;;;;14.62;55.06;100341.19;1688014;85;21832;-82
2021/04/18 08:02:32;;;;;;;27.60;12.55;;;;;;;14.77;55.28;100333.64;1687953;85;21867;-83
2021/04/18 08:05:41;;;;;;;25.68;11.97;;;;;;;14.99;52.78;100333.88;1687662;85;21765;-83
2021/04/18 08:08:59;;;;;;;35.60;15.32;;;;;;;15.23;50.86;100334.40;1687694;85;21366;-83
2021/04/18 08:12:18;;;;;;;32.95;14.90;;;;;;;15.28;48.61;100321.70;1688195;85;21288;-82
2021/04/18 08:15:23;;;;;;;31.42;16.25;;;;;;;15.27;50.08;100323.30;1688459;85;21948;-82
2021/04/18 08:18:42;;;;;;;30.08;15.30;;;;;;;15.30;50.21;100313.25;1679103;85;21304;-82
2021/04/18 08:21:49;;;;;;;31.87;14.65;;;;;;;15.20;49.88;100310.04;1670501;86;21334;-83
2021/04/18 08:24:55;;;;;;;31.00;13.70;;;;;;;15.14;50.61;100308.09;1670227;86;21283;-82
2021/04/18 08:28:17;;;;;;;28.50;13.75;;;;;;;15.11;50.75;100305.23;1665350;85;21331;-82
2021/04/18 08:31:23;;;;;;;23.55;10.20;;;;;;;15.11;50.67;100304.39;1680060;85;22236;-82
2021/04/18 08:34:31;;;;;;;17.95;8.03;;;;;;;15.13;50.26;100304.48;1679767;85;21291;-82
2021/04/18 08:37:36;;;;;;;12.10;7.83;;;;;;;15.17;50.36;100300.27;1678926;85;21215;-82
2021/04/18 08:40:44;;;;;;;11.50;7.42;;;;;;;15.20;50.79;100290.75;1679963;85;21157;-82
2021/04/18 08:43:54;;;;;;;13.65;7.10;;;;;;;15.24;49.23;100286.50;1682883;85;21740;-82
2021/04/18 08:47:05;;;;;;;8.40;5.53;;;;;;;15.20;48.70;100285.23;1664098;85;21251;-82
2021/04/18 08:50:18;;;;;;;13.00;7.47;;;;;;;15.21;48.75;100284.18;1654351;86;21281;-82
2021/04/18 08:53:22;;;;;;;14.93;6.55;;;;;;;15.25;47.72;100288.22;1679547;85;21299;-82
2021/04/18 08:56:27;;;;;;;13.45;6.90;;;;;;;15.25;48.68;100282.18;1679947;85;21290;-82
2021/04/18 08:59:34;;;;;;;23.07;9.45;;;;;;;15.26;47.70;100277.52;1680017;85;21344;-83
2021/04/18 09:02:41;;;;;;;19.65;9.00;;;;;;;15.18;46.93;100273.03;1680014;85;21323;-82
2021/04/18 09:05:46;;;;;;;19.70;7.95;;;;;;;15.05;48.30;100279.33;1680177;85;21844;-82
2021/04/18 09:09:01;;;;;;;14.80;6.70;;;;;;;15.04;48.13;100270.75;1679776;85;21825;-82
2021/04/18 09:12:07;;;;;;;13.40;7.58;;;;;;;14.96;46.62;100270.96;1669067;84;21212;-82
2021/04/18 09:15:14;;;;;;;8.33;4.72;;;;;;;14.86;47.64;100264.96;1670534;86;21283;-82
2021/04/18 09:18:22;;;;;;;13.08;5.42;;;;;;;14.88;47.15;100268.91;1670467;85;21855;-82
2021/04/18 09:21:30;;;;;;;10.70;5.95;;;;;;;14.83;45.07;100269.52;1655753;86;21283;-82
2021/04/18 09:24:35;;;;;;;11.35;5.45;;;;;;;14.76;46.14;100273.60;1680065;85;21286;-82
2021/04/18 09:27:43;;;;;;;8.45;4.20;;;;;;;14.78;47.83;100269.29;1679557;85;21932;-82
2021/04/18 09:30:49;;;;;;;6.40;3.83;;;;;;;14.80;49.23;100274.05;1680044;85;21283;-82
2021/04/18 09:33:56;;;;;;;11.12;3.47;;;;;;;14.92;49.62;100270.20;1678098;84;21250;-82
2021/04/18 09:37:06;;;;;;;6.70;4.35;;;;;;;14.98;46.37;100256.44;1665936;85;21172;-82
2021/04/18 09:40:15;;;;;;;6.45;4.40;;;;;;;14.94;45.56;100255.16;1680171;85;21283;-82
2021/04/18 09:43:24;;;;;;;10.40;7.30;;;;;;;14.88;45.94;100259.27;1680218;85;21884;-82
2021/04/18 09:46:31;;;;;;;6.67;3.43;;;;;;;14.93;45.85;100252.08;1666387;85;21279;-82
2021/04/18 09:49:56;;;;;;;5.83;3.20;;;;;;;14.99;47.07;100255.91;1680028;85;21738;-82
2021/04/18 09:53:01;;;;;;;3.52;2.55;;;;;;;15.07;46.71;100252.45;1677791;84;21272;-82
2021/04/18 09:56:08;;;;;;;5.72;2.50;;;;;;;15.16;46.54;100254.49;1725907;82;21151;-82
2021/04/18 09:59:23;;;;;;;7.45;5.30;;;;;;;15.22;45.74;100250.05;1720943;83;21800;-82
2021/04/18 10:02:29;;;;;;;9.10;6.22;;;;;;;15.08;44.51;100247.78;1724089;83;21295;-82
2021/04/18 10:05:35;;;;;;;6.45;2.60;;;;;;;14.90;45.77;100251.11;1724140;83;21279;-82
2021/04/18 10:08:44;;;;;;;3.47;2.17;;;;;;;14.89;46.64;100249.95;1722848;83;21932;-82
2021/04/18 10:12:05;;;;;;;3.25;1.98;;;;;;;14.97;46.15;100245.64;1724366;83;21838;-82
2021/04/18 10:15:15;;;;;;;9.03;5.35;;;;;;;15.09;45.45;100236.55;1723744;83;21201;-82
2021/04/18 10:18:20;;;;;;;22.85;12.40;;;;;;;15.19;44.07;100242.19;1724631;82;21851;-82
2021/04/18 10:21:29;;;;;;;25.50;10.85;;;;;;;15.21;44.04;100241.47;1734584;83;21196;-82
2021/04/18 10:24:44;;;;;;;8.53;3.65;;;;;;;15.25;44.29;100234.48;1734500;83;21295;-82
2021/04/18 10:27:49;;;;;;;3.95;1.77;;;;;;;15.22;42.69;100244.54;1734663;83;21810;-82
2021/04/18 10:30:55;;;;;;;2.27;1.70;;;;;;;15.19;42.69;100236.68;1734519;83;21828;-82
2021/04/18 10:34:01;;;;;;;5.30;2.62;;;;;;;15.23;42.46;100238.81;1705389;84;21315;-82
2021/04/18 10:37:06;;;;;;;4.55;1.80;;;;;;;15.31;43.46;100235.02;1704992;84;21212;-82
2021/04/18 10:40:12;;;;;;;4.15;1.70;;;;;;;15.39;44.44;100234.84;1705072;84;21311;-82
2021/04/18 10:43:18;;;;;;;2.77;1.60;;;;;;;15.54;45.63;100234.10;1705366;84;21205;-82
2021/04/18 10:46:23;;;;;;;4.92;1.90;;;;;;;15.71;44.80;100241.98;1684229;84;21165;-82
2021/04/18 10:49:29;;;;;;;2.87;1.98;;;;;;;15.81;42.75;100231.41;1705490;84;21343;-82
2021/04/18 10:52:38;;;;;;;8.60;2.15;;;;;;;15.90;41.33;100230.63;1705442;84;21311;-82
2021/04/18 10:55:42;;;;;;;2.85;2.10;;;;;;;16.03;42.09;100228.72;1705478;84;21777;-82
2021/04/18 10:58:49;;;;;;;2.72;1.52;;;;;;;16.07;41.52;100225.84;1705307;84;21224;-82
2021/04/18 11:01:55;;;;;;;3.45;1.67;;;;;;;16.14;41.15;100224.98;1705326;84;21291;-82
2021/04/18 11:05:00;;;;;;;3.10;1.80;;;;;;;16.20;41.97;100222.77;1705283;84;21205;-82
2021/04/18 11:08:05;;;;;;;2.37;1.80;;;;;;;16.17;41.44;100224.56;1705387;84;21287;-82
2021/04/18 11:11:11;;;;;;;2.25;1.70;;;;;;;16.16;40.65;100216.81;1705607;84;21299;-83
2021/04/18 11:14:18;;;;;;;2.80;1.70;;;;;;;16.13;40.80;100212.25;1705448;84;21220;-82
2021/04/18 11:17:25;;;;;;;4.95;1.80;;;;;;;16.13;41.11;100210.34;1704870;84;21318;-82
2021/04/18 11:20:31;;;;;;;2.12;1.65;;;;;;;16.15;40.88;100203.25;1699529;83;21327;-82
2021/04/18 11:23:37;;;;;;;4.25;1.40;;;;;;;16.15;41.19;100199.11;1693878;84;21339;-82
2021/04/18 11:26:43;;;;;;;2.15;1.57;;;;;;;16.17;41.41;100196.97;1695151;84;21330;-82
2021/04/18 11:29:48;;;;;;;3.40;1.45;;;;;;;16.21;41.24;100205.98;1693598;84;21342;-82
2021/04/18 11:32:55;;;;;;;5.60;1.60;;;;;;;16.27;40.25;100199.59;1694757;84;21307;-82
2021/04/18 11:36:02;;;;;;;2.10;1.40;;;;;;;16.39;41.06;100192.04;1693303;84;21304;-82
2021/04/18 11:39:08;;;;;;;3.00;1.65;;;;;;;16.46;39.93;100190.09;1693352;84;21965;-82
2021/04/18 11:42:14;;;;;;;6.17;1.65;;;;;;;16.47;39.61;100187.13;1694707;84;21335;-82
2021/04/18 11:45:21;;;;;;;2.67;1.57;;;;;;;16.53;39.07;100182.64;1679681;84;21300;-82
2021/04/18 11:48:27;;;;;;;2.33;1.40;;;;;;;16.66;39.73;100183.13;1694678;84;21834;-82
2021/04/18 11:51:33;;;;;;;3.20;1.60;;;;;;;16.72;38.33;100180.89;1680645;84;21707;-82
2021/04/18 11:54:39;;;;;;;2.85;1.70;;;;;;;16.79;37.81;100181.69;1695440;84;21201;-82
2021/04/18 11:57:46;;;;;;;3.12;1.65;;;;;;;16.80;37.86;100179.27;1695348;84;21367;-82
2021/04/18 12:00:52;;;;;;;4.60;1.60;;;;;;;16.74;38.35;100177.37;1694931;84;21288;-82
2021/04/18 12:03:58;;;;;;;2.85;1.82;;;;;;;16.72;38.76;100176.22;1695062;84;21295;-82
2021/04/18 12:07:05;;;;;;;3.67;1.77;;;;;;;16.74;39.50;100164.41;1695289;84;21354;-82
2021/04/18 12:10:13;;;;;;;3.10;1.80;;;;;;;16.69;39.68;100167.48;1693120;84;21213;-82
2021/04/18 12:13:18;;;;;;;2.52;2.12;;;;;;;16.60;39.78;100159.98;1698075;83;21347;-82
2021/04/18 12:16:24;;;;;;;3.70;2.40;;;;;;;16.49;40.04;100167.04;1707987;83;21275;-82
2021/04/18 12:19:31;;;;;;;5.95;2.70;;;;;;;16.46;39.52;100161.10;1723862;83;21678;-82
2021/04/18 12:22:36;;;;;;;3.10;2.20;;;;;;;16.33;38.72;100157.34;1744718;82;21282;-82
2021/04/18 12:25:42;;;;;;;3.00;2.35;;;;;;;16.27;38.92;100150.45;1747134;82;21314;-82
2021/04/18 12:28:49;;;;;;;3.02;2.40;;;;;;;16.26;38.85;100153.74;1746887;82;21338;-82
2021/04/18 12:31:53;;;;;;;3.62;2.60;;;;;;;16.26;38.61;100146.00;1726883;82;21274;-82
2021/04/18 12:35:00;;;;;;;9.10;2.62;;;;;;;16.25;38.72;100145.69;1747712;82;21721;-82
2021/04/18 12:38:06;;;;;;;4.60;2.33;;;;;;;16.13;38.97;100144.66;1747778;82;21698;-82
2021/04/18 12:41:16;;;;;;;5.53;2.45;;;;;;;15.97;38.96;100140.46;1747359;82;21298;-82
2021/04/18 12:44:22;;;;;;;3.62;2.50;;;;;;;15.80;39.30;100147.80;1747322;82;21287;-82
2021/04/18 12:47:28;;;;;;;4.85;2.52;;;;;;;15.74;39.81;100140.39;1747127;82;21215;-82
2021/04/18 12:50:34;;;;;;;5.12;3.15;;;;;;;15.74;40.38;100140.92;1726322;82;21144;-82
2021/04/18 12:53:41;;;;;;;4.30;2.90;;;;;;;15.71;39.63;100146.85;1747228;82;21243;-82
2021/04/18 12:56:46;;;;;;;4.42;2.87;;;;;;;15.70;40.63;100134.13;1697219;83;21864;-82
2021/04/18 12:59:55;;;;;;;6.75;2.70;;;;;;;15.75;41.12;100134.34;1726018;82;21844;-82
2021/04/18 13:03:05;;;;;;;2.90;2.22;;;;;;;15.84;40.47;100141.33;1744430;82;21307;-82
2021/04/18 13:06:09;;;;;;;4.22;2.72;;;;;;;15.93;40.22;100135.05;1744204;82;21204;-83
2021/04/18 13:09:14;;;;;;;7.00;2.90;;;;;;;15.99;41.36;100133.64;1717407;83;21278;-83
2021/04/18 13:12:19;;;;;;;4.12;2.67;;;;;;;15.97;40.70;100137.17;1715819;83;21282;-82
2021/04/18 13:15:26;;;;;;;8.08;3.83;;;;;;;15.89;40.60;100136.55;1716307;83;21220;-83
2021/04/18 13:18:35;;;;;;;4.40;2.95;;;;;;;15.73;41.15;100132.34;1716808;83;21253;-83
2021/04/18 13:21:50;;;;;;;4.17;3.22;;;;;;;15.62;41.26;100131.56;1721616;82;21717;-82
2021/04/18 13:24:58;;;;;;;6.12;3.50;;;;;;;15.56;40.94;100128.59;1694557;84;21347;-83
2021/04/18 13:28:10;;;;;;;6.28;2.95;;;;;;;15.51;41.27;100125.63;1706184;83;21204;-84
2021/04/18 13:31:18;;;;;;;5.28;3.15;;;;;;;15.56;40.32;100130.51;1689175;84;21169;-83
2021/04/18 13:34:26;;;;;;;8.60;3.42;;;;;;;15.56;39.46;100135.48;1722652;83;21732;-83
2021/04/18 13:37:32;;;;;;;6.80;3.15;;;;;;;15.53;39.93;100129.05;1702312;83;21911;-83
2021/04/18 13:40:40;;;;;;;8.28;3.65;;;;;;;15.52;40.29;100127.33;1719750;83;21923;-83
2021/04/18 13:43:48;;;;;;;7.65;3.45;;;;;;;15.50;40.99;100129.99;1723131;83;21343;-83
2021/04/18 13:47:04;;;;;;;4.90;3.27;;;;;;;15.50;42.26;100129.45;1716880;83;21280;-83
2021/04/18 13:50:12;;;;;;;9.75;3.60;;;;;;;15.51;41.85;100125.63;1708852;83;21779;-83
2021/04/18 13:53:24;;;;;;;6.97;2.90;;;;;;;15.51;42.21;100125.63;1709957;83;21363;-82
2021/04/18 13:56:32;;;;;;;4.78;2.55;;;;;;;15.47;42.47;100124.36;1722736;83;21780;-83
2021/04/18 13:59:39;;;;;;;4.83;3.42;;;;;;;15.39;42.27;100123.22;1704588;83;21940;-82
2021/04/18 14:02:47;;;;;;;5.12;3.25;;;;;;;15.32;42.02;100125.11;1706565;83;21395;-83
2021/04/18 14:05:56;;;;;;;5.58;3.55;;;;;;;15.32;42.18;100127.87;1697757;83;21245;-82
2021/04/18 14:09:03;;;;;;;4.87;3.20;;;;;;;15.39;42.34;100125.98;1721919;83;21800;-82
2021/04/18 14:12:07;;;;;;;3.83;2.80;;;;;;;15.44;41.68;100117.91;1723738;83;21292;-82
2021/04/18 14:15:20;;;;;;;4.83;2.62;;;;;;;15.52;41.78;100119.05;1724212;83;21149;-82
2021/04/18 14:18:28;;;;;;;6.10;3.55;;;;;;;15.58;41.29;100112.71;1718969;83;21331;-83
2021/04/18 14:21:33;;;;;;;5.78;3.22;;;;;;;15.54;40.69;100110.05;1723410;83;21157;-83
2021/04/18 14:24:39;;;;;;;6.25;3.55;;;;;;;15.45;40.72;100108.58;1733029;82;21756;-82